createdAt,value
2022-10-26T00:01:05.061Z,100511.53
2022-10-26T00:03:31.704Z,100511.09
2022-10-26T00:06:14.923Z,100509.81
2022-10-26T00:08:41.354Z,100518.69
2022-10-26T00:11:08.645Z,100516.16
2022-10-26T00:13:36.210Z,100524.16
2022-10-26T00:16:10.150Z,100529.19
2022-10-26T00:18:36.662Z,100523.50
2022-10-26T00:21:07.594Z,100518.69
2022-10-26T00:23:34.201Z,100527.09
2022-10-26T00:26:00.624Z,100527.97
2022-10-26T00:28:28.677Z,100529.75
2022-10-26T00:30:55.519Z,100530.13
2022-10-26T00:33:21.903Z,100532.69
2022-10-26T00:35:54.539Z,100531.66
2022-10-26T00:39:17.210Z,100533.56
2022-10-26T00:41:43.925Z,100523.03
2022-10-26T00:44:55.266Z,100527.91
2022-10-26T00:50:56.417Z,100525.63
2022-10-26T00:57:03.703Z,100503.06
2022-10-26T00:59:33.892Z,100513.16
2022-10-26T01:02:00.468Z,100515.47
2022-10-26T01:04:27.009Z,100510.44
2022-10-26T01:06:54.086Z,100512.78
2022-10-26T01:09:20.812Z,100521.84
2022-10-26T01:11:47.209Z,100510.22
2022-10-26T01:14:18.188Z,100505.38
2022-10-26T01:17:00.346Z,100507.47
2022-10-26T01:19:26.687Z,100514.66
2022-10-26T01:22:01.863Z,100518.47
2022-10-26T01:24:52.252Z,100518.22
2022-10-26T01:27:39.078Z,100504.75
2022-10-26T01:30:25.241Z,100516.50
2022-10-26T01:33:09.483Z,100509.97
2022-10-26T01:35:46.414Z,100510.34
2022-10-26T01:38:34.381Z,100497.31
2022-10-26T01:41:11.578Z,100492.44
2022-10-26T01:43:42.049Z,100478.97
2022-10-26T01:46:10.692Z,100478.78
2022-10-26T01:48:38.393Z,100474.16
2022-10-26T01:51:07.338Z,100473.31
2022-10-26T01:53:33.701Z,100469.72
2022-10-26T01:56:02.783Z,100466.56
2022-10-26T01:59:01.237Z,100467.41
2022-10-26T02:01:42.680Z,100469.91
2022-10-26T02:04:30.734Z,100472.47
2022-10-26T02:07:21.642Z,100476.91
2022-10-26T02:10:06.557Z,100480.09
2022-10-26T02:12:38.785Z,100482.41
2022-10-26T02:15:13.868Z,100483.25
2022-10-26T02:17:55.363Z,100484.72
2022-10-26T02:20:28.428Z,100498.00
2022-10-26T02:22:56.378Z,100501.56
2022-10-26T02:25:37.679Z,100490.38
2022-10-26T02:28:12.368Z,100491.84
2022-10-26T02:30:40.290Z,100485.09
2022-10-26T02:33:10.810Z,100481.06
2022-10-26T02:35:41.087Z,100478.97
2022-10-26T02:38:12.931Z,100479.16
2022-10-26T02:40:40.217Z,100490.97
2022-10-26T02:43:14.001Z,100497.94
2022-10-26T02:45:46.377Z,100503.16
2022-10-26T02:48:12.962Z,100498.94
2022-10-26T02:51:02.835Z,100509.28
2022-10-26T02:53:54.179Z,100503.38
2022-10-26T02:56:26.444Z,100504.41
2022-10-26T02:58:57.718Z,100490.47
2022-10-26T03:01:24.843Z,100490.88
2022-10-26T03:03:57.406Z,100482.06
2022-10-26T03:06:26.561Z,100482.25
2022-10-26T03:08:53.012Z,100486.94
2022-10-26T03:11:19.455Z,100509.91
2022-10-26T03:13:48.113Z,100521.91
2022-10-26T03:16:14.558Z,100526.75
2022-10-26T03:18:41.040Z,100528.84
2022-10-26T03:21:07.420Z,100530.94
2022-10-26T03:23:33.789Z,100534.09
2022-10-26T03:26:02.522Z,100530.50
2022-10-26T03:28:28.962Z,100522.03
2022-10-26T03:30:55.393Z,100513.22
2022-10-26T03:33:27.032Z,100525.03
2022-10-26T03:35:56.044Z,100512.38
2022-10-26T03:38:22.558Z,100504.84
2022-10-26T03:40:48.940Z,100503.59
2022-10-26T03:43:17.507Z,100497.69
2022-10-26T03:45:43.899Z,100496.03
2022-10-26T03:48:10.410Z,100495.19
2022-10-26T03:50:36.782Z,100488.00
2022-10-26T03:53:03.292Z,100487.41
2022-10-26T03:55:31.989Z,100499.19
2022-10-26T03:57:58.413Z,100500.25
2022-10-26T04:00:24.900Z,100504.44
2022-10-26T04:02:58.936Z,100510.34
2022-10-26T04:05:26.976Z,100501.50
2022-10-26T04:07:59.473Z,100504.00
2022-10-26T04:10:27.385Z,100506.31
2022-10-26T04:12:54.864Z,100504.00
2022-10-26T04:15:21.962Z,100499.19
2022-10-26T04:17:48.667Z,100495.59
2022-10-26T04:20:15.481Z,100515.81
2022-10-26T04:22:41.885Z,100509.03
2022-10-26T04:25:08.632Z,100502.50
2022-10-26T04:27:35.490Z,100507.56
2022-10-26T04:30:01.961Z,100502.72
2022-10-26T04:32:28.312Z,100501.47
2022-10-26T04:34:54.730Z,100499.56
2022-10-26T04:37:21.146Z,100498.94
2022-10-26T04:39:47.520Z,100494.94
2022-10-26T04:42:16.482Z,100488.59
2022-10-26T04:44:42.857Z,100485.47
2022-10-26T04:47:09.275Z,100491.78
2022-10-26T04:49:35.630Z,100493.47
2022-10-26T04:52:02.011Z,100502.72
2022-10-26T04:54:28.402Z,100499.38
2022-10-26T04:56:54.756Z,100493.25
2022-10-26T04:59:21.222Z,100495.38
2022-10-26T05:01:47.756Z,100497.91
2022-10-26T05:04:14.382Z,100492.59
2022-10-26T05:06:43.369Z,100484.59
2022-10-26T05:09:09.842Z,100479.56
2022-10-26T05:11:36.290Z,100480.63
2022-10-26T05:14:03.190Z,100488.22
2022-10-26T05:16:29.622Z,100488.00
2022-10-26T05:18:58.613Z,100499.81
2022-10-26T05:21:25.098Z,100502.38
2022-10-26T05:23:53.770Z,100510.59
2022-10-26T05:26:20.392Z,100517.09
2022-10-26T05:28:46.788Z,100526.78
2022-10-26T05:31:13.626Z,100533.31
2022-10-26T05:33:40.034Z,100535.84
2022-10-26T05:36:06.855Z,100539.84
2022-10-26T05:38:35.802Z,100547.84
2022-10-26T05:41:02.227Z,100538.16
2022-10-26T05:43:28.711Z,100540.22
2022-10-26T05:45:55.103Z,100536.44
2022-10-26T05:48:22.023Z,100537.72
2022-10-26T05:50:51.199Z,100541.91
2022-10-26T05:53:17.724Z,100546.56
2022-10-26T05:55:44.521Z,100546.38
2022-10-26T05:58:16.682Z,100557.34
2022-10-26T06:01:08.181Z,100556.91
2022-10-26T06:03:47.731Z,100556.28
2022-10-26T06:06:14.422Z,100559.22
2022-10-26T06:08:43.575Z,100560.09
2022-10-26T06:11:10.494Z,100570.88
2022-10-26T06:13:37.155Z,100569.84
2022-10-26T06:16:34.623Z,100576.78
2022-10-26T06:19:33.855Z,100592.78
2022-10-26T06:22:05.863Z,100592.13
2022-10-26T06:24:46.973Z,100608.97
2022-10-26T06:27:22.103Z,100609.38
2022-10-26T06:30:02.245Z,100602.38
2022-10-26T06:32:29.191Z,100608.53
2022-10-26T06:35:12.966Z,100606.19
2022-10-26T06:37:42.161Z,100604.31
2022-10-26T06:40:09.959Z,100608.94
2022-10-26T06:42:36.610Z,100606.38
2022-10-26T06:45:03.579Z,100600.72
2022-10-26T06:47:36.526Z,100606.81
2022-10-26T06:50:39.842Z,100622.22
2022-10-26T06:53:20.795Z,100609.38
2022-10-26T06:55:51.303Z,100623.28
2022-10-26T06:58:23.834Z,100622.47
2022-10-26T07:00:53.521Z,100626.47
2022-10-26T07:03:22.400Z,100630.47
2022-10-26T07:05:51.174Z,100640.59
2022-10-26T07:08:18.127Z,100641.66
2022-10-26T07:10:46.045Z,100647.94
2022-10-26T07:13:15.058Z,100658.28
2022-10-26T07:15:42.907Z,100653.44
2022-10-26T07:18:09.764Z,100665.25
2022-10-26T07:20:44.011Z,100664.22
2022-10-26T07:23:13.406Z,100668.00
2022-10-26T07:25:44.470Z,100676.22
2022-10-26T07:28:11.479Z,100684.03
2022-10-26T07:30:41.136Z,100684.50
2022-10-26T07:33:13.266Z,100692.75
2022-10-26T07:35:39.923Z,100694.44
2022-10-26T07:38:08.301Z,100687.72
2022-10-26T07:40:36.545Z,100685.22
2022-10-26T07:43:03.156Z,100686.69
2022-10-26T07:45:29.990Z,100694.91
2022-10-26T07:47:57.202Z,100682.69
2022-10-26T07:50:24.734Z,100687.13
2022-10-26T07:52:51.531Z,100677.91
2022-10-26T07:55:20.547Z,100683.81
2022-10-26T07:57:49.673Z,100688.03
2022-10-26T08:00:22.723Z,100686.81
2022-10-26T08:02:49.414Z,100685.97
2022-10-26T08:05:15.867Z,100699.06
2022-10-26T08:07:45.921Z,100700.31
2022-10-26T08:10:15.598Z,100698.66
2022-10-26T08:12:47.130Z,100698.25
2022-10-26T08:15:13.556Z,100693.00
2022-10-26T08:17:39.942Z,100693.00
2022-10-26T08:20:09.016Z,100695.41
2022-10-26T08:22:36.432Z,100701.75
2022-10-26T08:25:05.314Z,100705.16
2022-10-26T08:27:31.852Z,100715.97
2022-10-26T08:29:58.232Z,100717.91
2022-10-26T08:32:24.658Z,100719.16
2022-10-26T08:34:53.486Z,100715.16
2022-10-26T08:37:19.925Z,100716.63
2022-10-26T08:39:54.700Z,100717.06
2022-10-26T08:42:33.048Z,100709.06
2022-10-26T08:45:10.804Z,100711.63
2022-10-26T08:47:46.440Z,100722.59
2022-10-26T08:50:32.861Z,100724.72
2022-10-26T08:53:14.253Z,100730.44
2022-10-26T08:55:46.982Z,100728.09
2022-10-26T08:58:22.711Z,100742.09
2022-10-26T09:00:51.244Z,100736.78
2022-10-26T09:03:19.099Z,100733.19
2022-10-26T09:06:10.473Z,100736.97
2022-10-26T09:09:00.625Z,100743.28
2022-10-26T09:11:44.031Z,100742.66
2022-10-26T09:14:21.269Z,100746.19
2022-10-26T09:17:02.261Z,100741.75
2022-10-26T09:19:51.690Z,100749.94
2022-10-26T09:22:27.183Z,100752.22
2022-10-26T09:25:04.074Z,100751.56
2022-10-26T09:27:46.367Z,100753.97
2022-10-26T09:30:19.375Z,100753.91
2022-10-26T09:32:52.374Z,100756.41
2022-10-26T09:35:31.330Z,100770.47
2022-10-26T09:38:03.979Z,100767.66
2022-10-26T09:40:36.461Z,100773.81
2022-10-26T09:43:25.116Z,100775.44
2022-10-26T09:45:52.672Z,100760.72
2022-10-26T09:48:33.487Z,100761.69
2022-10-26T09:51:03.540Z,100761.19
2022-10-26T09:53:32.058Z,100770.19
2022-10-26T09:56:07.633Z,100772.03
2022-10-26T09:58:48.681Z,100766.28
2022-10-26T10:01:24.413Z,100769.22
2022-10-26T10:04:16.675Z,100783.91
2022-10-26T10:06:44.405Z,100780.84
2022-10-26T10:09:12.357Z,100783.31
2022-10-26T10:11:56.408Z,100792.66
2022-10-26T10:14:25.872Z,100798.34
2022-10-26T10:16:57.976Z,100803.28
2022-10-26T10:19:35.567Z,100806.22
2022-10-26T10:22:11.671Z,100798.28
2022-10-26T10:24:53.022Z,100796.81
2022-10-26T10:27:19.564Z,100799.41
2022-10-26T10:29:47.382Z,100800.22
2022-10-26T10:32:20.919Z,100802.66
2022-10-26T10:34:51.462Z,100807.31
2022-10-26T10:37:30.362Z,100808.88
2022-10-26T10:40:00.173Z,100807.97
2022-10-26T10:42:31.315Z,100812.97
2022-10-26T10:44:58.418Z,100813.44
2022-10-26T10:47:37.428Z,100822.78
2022-10-26T10:50:15.292Z,100823.88
2022-10-26T10:52:42.596Z,100831.69
2022-10-26T10:55:19.710Z,100819.69
2022-10-26T10:57:58.262Z,100831.00
2022-10-26T11:00:27.270Z,100824.84
2022-10-26T11:03:08.729Z,100829.19
2022-10-26T11:05:50.107Z,100831.50
2022-10-26T11:08:22.343Z,100828.63
2022-10-26T11:10:59.286Z,100833.53
2022-10-26T11:13:39.789Z,100847.38
2022-10-26T11:16:13.790Z,100850.63
2022-10-26T11:18:48.098Z,100846.03
2022-10-26T11:21:28.874Z,100844.34
2022-10-26T11:24:11.382Z,100842.53
2022-10-26T11:27:14.791Z,100841.84
2022-10-26T11:30:19.766Z,100849.66
2022-10-26T11:32:54.784Z,100844.97
2022-10-26T11:35:38.190Z,100846.78
2022-10-26T11:38:20.717Z,100846.19
2022-10-26T11:41:01.903Z,100841.94
2022-10-26T11:43:45.870Z,100838.97
2022-10-26T11:46:31.070Z,100846.19
2022-10-26T11:49:19.415Z,100849.56
2022-10-26T11:52:10.049Z,100853.75
2022-10-26T11:54:39.420Z,100856.16
2022-10-26T11:57:06.412Z,100860.94
2022-10-26T11:59:39.952Z,100854.09
2022-10-26T12:02:11.399Z,100857.00
2022-10-26T12:04:46.808Z,100861.47
2022-10-26T12:07:35.703Z,100854.59
2022-10-26T12:10:03.344Z,100868.59
2022-10-26T12:12:41.509Z,100857.25
2022-10-26T12:15:27.446Z,100876.25
2022-10-26T12:18:04.638Z,100857.03
2022-10-26T12:20:46.191Z,100869.47
2022-10-26T12:23:19.081Z,100869.72
2022-10-26T12:26:23.753Z,100857.78
2022-10-26T12:29:02.241Z,100862.84
2022-10-26T12:31:37.608Z,100861.88
2022-10-26T12:34:10.528Z,100857.44
2022-10-26T12:36:58.054Z,100853.13
2022-10-26T12:39:39.239Z,100859.16
2022-10-26T12:42:05.563Z,100871.41
2022-10-26T12:44:45.567Z,100873.66
2022-10-26T12:47:30.772Z,100868.31
2022-10-26T12:50:00.240Z,100867.00
2022-10-26T12:52:51.260Z,100874.78
2022-10-26T12:56:02.219Z,100872.81
2022-10-26T12:58:40.896Z,100878.47
2022-10-26T13:01:07.260Z,100881.09
2022-10-26T13:03:37.999Z,100882.78
2022-10-26T13:06:32.130Z,100879.78
2022-10-26T13:09:00.267Z,100883.16
2022-10-26T13:11:35.076Z,100881.75
2022-10-26T13:14:04.696Z,100881.66
2022-10-26T13:16:31.506Z,100876.72
2022-10-26T13:18:59.392Z,100887.06
2022-10-26T13:21:27.173Z,100884.44
2022-10-26T13:23:53.537Z,100884.44
2022-10-26T13:26:22.754Z,100882.41
2022-10-26T13:28:50.812Z,100883.00
2022-10-26T13:31:29.718Z,100883.50
2022-10-26T13:34:00.756Z,100886.13
2022-10-26T13:36:41.488Z,100889.63
2022-10-26T13:39:21.833Z,100876.97
2022-10-26T13:41:53.938Z,100878.38
2022-10-26T13:44:26.443Z,100878.72
2022-10-26T13:47:01.102Z,100873.16
2022-10-26T13:49:36.395Z,100875.25
2022-10-26T13:52:07.930Z,100875.34
2022-10-26T13:54:59.057Z,100881.03
2022-10-26T13:57:42.230Z,100886.56
2022-10-26T14:00:20.077Z,100888.78
2022-10-26T14:02:46.690Z,100890.25
2022-10-26T14:05:16.872Z,100898.19
2022-10-26T14:07:56.848Z,100897.41
2022-10-26T14:10:26.536Z,100896.88
2022-10-26T14:12:53.795Z,100901.00
2022-10-26T14:15:26.814Z,100903.94
2022-10-26T14:17:55.155Z,100903.16
2022-10-26T14:20:23.836Z,100905.75
2022-10-26T14:22:53.051Z,100915.63
2022-10-26T14:25:35.769Z,100921.44
2022-10-26T14:28:23.735Z,100913.84
2022-10-26T14:30:51.454Z,100923.28
2022-10-26T14:33:20.086Z,100919.44
2022-10-26T14:35:47.752Z,100918.03
2022-10-26T14:38:23.615Z,100924.53
2022-10-26T14:40:52.314Z,100917.56
2022-10-26T14:43:22.602Z,100924.03
2022-10-26T14:45:51.877Z,100929.63
2022-10-26T14:48:24.317Z,100923.25
2022-10-26T14:51:01.763Z,100936.16
2022-10-26T14:53:37.869Z,100925.03
2022-10-26T14:56:16.563Z,100930.59
2022-10-26T14:58:43.111Z,100928.88
2022-10-26T15:01:24.449Z,100931.19
2022-10-26T15:04:03.481Z,100928.16
2022-10-26T15:06:30.712Z,100928.69
2022-10-26T15:08:59.702Z,100936.75
2022-10-26T15:11:31.556Z,100948.03
2022-10-26T15:13:58.405Z,100943.94
2022-10-26T15:16:31.744Z,100952.09
2022-10-26T15:19:10.929Z,100947.69
2022-10-26T15:21:44.379Z,100952.16
2022-10-26T15:24:32.068Z,100955.56
2022-10-26T15:27:01.913Z,100961.81
2022-10-26T15:29:36.988Z,100970.97
2022-10-26T15:34:36.644Z,100971.63
2022-10-26T15:37:03.529Z,100974.91
2022-10-26T15:39:32.506Z,100987.06
2022-10-26T15:42:00.068Z,100984.78
2022-10-26T15:44:26.461Z,100989.50
2022-10-26T15:46:52.957Z,100988.25
2022-10-26T15:49:21.193Z,100990.19
2022-10-26T15:51:49.219Z,100987.91
2022-10-26T15:54:15.653Z,100988.56
2022-10-26T15:56:43.719Z,100996.22
2022-10-26T15:59:14.925Z,100990.56
2022-10-26T16:01:41.435Z,100993.72
2022-10-26T16:04:10.109Z,100998.84
2022-10-26T16:06:39.046Z,100997.59
2022-10-26T16:09:09.946Z,100994.63
2022-10-26T16:11:36.324Z,101001.03
2022-10-26T16:14:03.983Z,100999.56
2022-10-26T16:16:31.039Z,101002.75
2022-10-26T16:19:18.483Z,101009.75
2022-10-26T16:21:46.140Z,101006.16
2022-10-26T16:24:12.536Z,101012.75
2022-10-26T16:26:38.958Z,101009.56
2022-10-26T16:29:05.387Z,101009.56
2022-10-26T16:31:31.788Z,101018.91
2022-10-26T16:34:01.627Z,101026.28
2022-10-26T16:36:32.817Z,101022.25
2022-10-26T16:38:59.594Z,101021.41
2022-10-26T16:41:26.033Z,101024.78
2022-10-26T16:43:52.483Z,101031.16
2022-10-26T16:46:20.987Z,101035.81
2022-10-26T16:48:49.120Z,101036.84
2022-10-26T16:51:21.305Z,101045.09
2022-10-26T16:53:49.870Z,101046.59
2022-10-26T16:56:19.247Z,101050.56
2022-10-26T16:58:46.157Z,101048.66
2022-10-26T17:01:17.938Z,101050.97
2022-10-26T17:03:44.893Z,101061.75
2022-10-26T17:06:14.050Z,101058.56
2022-10-26T17:08:40.720Z,101062.34
2022-10-26T17:11:11.567Z,101067.66
2022-10-26T17:13:39.440Z,101072.50
2022-10-26T17:16:17.025Z,101081.75
2022-10-26T17:18:44.555Z,101088.53
2022-10-26T17:21:13.005Z,101087.84
2022-10-26T17:23:39.688Z,101095.84
2022-10-26T17:26:09.174Z,101097.34
2022-10-26T17:28:36.272Z,101103.41
2022-10-26T17:31:03.906Z,101105.50
2022-10-26T17:33:33.465Z,101114.13
2022-10-26T17:36:03.806Z,101110.06
2022-10-26T17:38:32.107Z,101119.94
2022-10-26T17:41:05.117Z,101120.75
2022-10-26T17:43:33.371Z,101127.06
2022-10-26T17:46:07.538Z,101132.31
2022-10-26T17:48:34.339Z,101124.47
2022-10-26T17:51:02.227Z,101136.22
2022-10-26T17:53:31.261Z,101131.38
2022-10-26T17:56:08.341Z,101131.94
2022-10-26T17:58:38.120Z,101146.72
2022-10-26T18:01:07.375Z,101144.97
2022-10-26T18:03:34.064Z,101152.75
2022-10-26T18:06:00.866Z,101157.78
2022-10-26T18:08:32.518Z,101163.84
2022-10-26T18:10:59.071Z,101164.44
2022-10-26T18:13:33.891Z,101165.88
2022-10-26T18:16:08.913Z,101169.41
2022-10-26T18:18:37.069Z,101177.19
2022-10-26T18:21:05.439Z,101168.97
2022-10-26T18:23:34.649Z,101173.53
2022-10-26T18:26:15.928Z,101174.78
2022-10-26T18:28:45.272Z,101176.38
2022-10-26T18:31:14.021Z,101176.78
2022-10-26T18:33:40.874Z,101187.25
2022-10-26T18:36:15.833Z,101187.44
2022-10-26T18:38:44.779Z,101180.63
2022-10-26T18:41:12.224Z,101185.66
2022-10-26T18:43:45.262Z,101180.75
2022-10-26T18:46:17.513Z,101180.75
2022-10-26T18:48:47.040Z,101176.03
2022-10-26T18:51:18.542Z,101184.84
2022-10-26T18:53:46.720Z,101184.38
2022-10-26T18:56:18.120Z,101183.06
2022-10-26T18:58:47.538Z,101189.94
2022-10-26T19:01:16.666Z,101187.97
2022-10-26T19:03:47.176Z,101189.63
2022-10-26T19:06:18.950Z,101196.03
2022-10-26T19:08:46.420Z,101200.38
2022-10-26T19:11:15.475Z,101199.91
2022-10-26T19:13:42.617Z,101202.94
2022-10-26T19:16:40.301Z,101203.41
2022-10-26T19:19:08.908Z,101203.88
2022-10-26T19:21:36.650Z,101204.22
2022-10-26T19:24:03.595Z,101209.63
2022-10-26T19:26:35.346Z,101212.56
2022-10-26T19:29:06.746Z,101221.06
2022-10-26T19:31:35.643Z,101214.44
2022-10-26T19:34:03.451Z,101217.56
2022-10-26T19:36:30.294Z,101213.84
2022-10-26T19:38:57.023Z,101219.53
2022-10-26T19:41:25.282Z,101217.19
2022-10-26T19:43:53.281Z,101217.03
2022-10-26T19:46:22.670Z,101219.13
2022-10-26T19:48:53.957Z,101218.19
2022-10-26T19:51:20.807Z,101233.94
2022-10-26T19:53:47.421Z,101230.53
2022-10-26T19:56:17.088Z,101237.78
2022-10-26T19:58:44.830Z,101236.59
2022-10-26T20:01:13.598Z,101250.09
2022-10-26T20:03:40.955Z,101246.09
2022-10-26T20:06:12.797Z,101247.34
2022-10-26T20:08:43.665Z,101247.13
2022-10-26T20:11:14.673Z,101251.13
2022-10-26T20:13:43.599Z,101248.75
2022-10-26T20:16:10.837Z,101254.63
2022-10-26T20:18:37.425Z,101258.75
2022-10-26T20:21:11.336Z,101262.03
2022-10-26T20:23:37.860Z,101256.06
2022-10-26T20:28:35.733Z,101256.50
2022-10-26T20:31:02.125Z,101259.59
2022-10-26T20:33:28.677Z,101265.78
2022-10-26T20:35:56.960Z,101265.97
2022-10-26T20:38:23.659Z,101277.44
2022-10-26T20:40:54.753Z,101281.22
2022-10-26T20:43:21.735Z,101276.78
2022-10-26T20:45:48.495Z,101272.34
2022-10-26T20:48:17.376Z,101273.91
2022-10-26T20:50:50.823Z,101275.25
2022-10-26T20:53:31.267Z,101274.63
2022-10-26T20:56:04.059Z,101276.59
2022-10-26T20:59:27.960Z,101273.59
2022-10-26T21:01:54.605Z,101274.09
2022-10-26T21:04:21.068Z,101273.28
2022-10-26T21:06:47.583Z,101266.59
2022-10-26T21:09:14.071Z,101264.41
2022-10-26T21:11:40.667Z,101269.19
2022-10-26T21:14:07.098Z,101275.88
2022-10-26T21:16:33.533Z,101272.44
2022-10-26T21:19:00.359Z,101279.00
2022-10-26T21:21:26.891Z,101287.22
2022-10-26T21:23:55.658Z,101290.31
2022-10-26T21:26:22.130Z,101290.63
2022-10-26T21:28:49.132Z,101288.59
2022-10-26T21:31:18.231Z,101289.28
2022-10-26T21:33:46.175Z,101293.22
2022-10-26T21:36:13.362Z,101288.94
2022-10-26T21:38:41.778Z,101290.34
2022-10-26T21:41:16.927Z,101284.53
2022-10-26T21:43:46.239Z,101285.06
2022-10-26T21:46:16.147Z,101289.66
2022-10-26T21:48:42.617Z,101288.31
2022-10-26T21:51:17.681Z,101288.63
2022-10-26T21:53:44.875Z,101290.66
2022-10-26T21:56:14.285Z,101292.09
2022-10-26T21:58:40.943Z,101294.59
2022-10-26T22:01:18.165Z,101296.34
2022-10-26T22:03:45.192Z,101297.16
2022-10-26T22:06:13.857Z,101296.00
2022-10-26T22:08:43.042Z,101295.50
2022-10-26T22:11:15.802Z,101289.38
2022-10-26T22:13:46.047Z,101289.72
2022-10-26T22:16:19.003Z,101294.34
2022-10-26T22:18:46.113Z,101292.63
2022-10-26T22:21:16.187Z,101286.88
2022-10-26T22:23:45.876Z,101291.78
2022-10-26T22:26:17.484Z,101292.81
2022-10-26T22:28:46.200Z,101295.19
2022-10-26T22:31:26.454Z,101298.63
2022-10-26T22:33:57.143Z,101294.84
2022-10-26T22:36:24.496Z,101304.75
2022-10-26T22:38:51.685Z,101315.88
2022-10-26T22:41:19.337Z,101314.66
2022-10-26T22:43:46.038Z,101315.34
2022-10-26T22:46:18.045Z,101313.31
2022-10-26T22:48:46.991Z,101321.16
2022-10-26T22:51:19.677Z,101317.06
2022-10-26T22:53:46.879Z,101318.41
2022-10-26T22:56:14.288Z,101315.88
2022-10-26T22:58:40.937Z,101325.25
2022-10-26T23:01:09.951Z,101324.59
2022-10-26T23:03:37.006Z,101322.34
2022-10-26T23:06:06.016Z,101322.16
2022-10-26T23:08:32.657Z,101318.97
2022-10-26T23:11:05.547Z,101313.16
2022-10-26T23:13:32.127Z,101319.78
2022-10-26T23:16:06.072Z,101318.09
2022-10-26T23:18:33.385Z,101327.81
2022-10-26T23:21:00.201Z,101318.44
2022-10-26T23:23:26.775Z,101319.28
2022-10-26T23:25:53.609Z,101330.88
2022-10-26T23:28:20.072Z,101327.28
2022-10-26T23:30:47.181Z,101328.34
2022-10-26T23:33:15.979Z,101329.19
2022-10-26T23:35:42.510Z,101332.44
2022-10-26T23:38:11.032Z,101339.41
2022-10-26T23:40:37.553Z,101329.34
2022-10-26T23:43:03.978Z,101326.25
2022-10-26T23:45:30.509Z,101322.84
2022-10-26T23:47:56.958Z,101327.44
2022-10-26T23:50:23.331Z,101342.28
2022-10-26T23:52:49.834Z,101336.13
2022-10-26T23:55:16.998Z,101336.66
2022-10-26T23:57:43.678Z,101333.72
